Time;durP1;ratioP1;P1;durP2;ratioP2;P2;SDS_P1;SDS_P2;PMS_P1;PMS_P2;Temp;Humidity;BMP_temperature;BMP_pressure;BME280_temperature;BME280_humidity;BME280_pressure;Samples;Min_cycle;Max_cycle;Signal;HPM_P1;HPM_P2
2023/03/26 00:00:34;;;;;;;4.50;0.80;;;;;;;7.27;76.99;99163.98;109874;1280;22151;-59
2023/03/26 00:03:25;;;;;;;8.70;0.90;;;;;;;7.28;76.96;99164.60;109908;1276;22157;-58
2023/03/26 00:06:06;;;;;;;5.40;0.70;;;;;;;7.30;76.95;99161.09;109875;1276;22759;-59
2023/03/26 00:08:38;;;;;;;5.20;0.90;;;;;;;7.32;76.91;99165.30;109904;1266;22866;-59
2023/03/26 00:11:12;;;;;;;7.20;0.90;;;;;;;7.35;76.97;99171.20;109863;1276;22860;-58
2023/03/26 00:13:43;;;;;;;9.20;1.20;;;;;;;7.34;76.97;99167.26;109897;1283;22127;-57
2023/03/26 00:16:17;;;;;;;7.00;0.90;;;;;;;7.35;77.01;99166.75;109867;1276;23364;-59
2023/03/26 00:18:50;;;;;;;4.30;0.50;;;;;;;7.36;77.01;99157.75;109885;1267;22321;-59
2023/03/26 00:21:25;;;;;;;4.50;0.80;;;;;;;7.37;77.17;99160.48;109892;1276;22383;-57
2023/03/26 00:23:57;;;;;;;3.80;0.70;;;;;;;7.37;77.05;99156.14;109896;1267;22219;-58
2023/03/26 00:26:29;;;;;;;3.40;0.70;;;;;;;7.36;77.18;99155.44;109917;1267;22264;-60
2023/03/26 00:29:02;;;;;;;3.50;0.60;;;;;;;7.35;77.27;99154.39;109894;1282;22220;-58
2023/03/26 00:31:33;;;;;;;3.30;0.60;;;;;;;7.34;77.25;99152.46;102940;1276;5418359;-57
2023/03/26 00:34:04;;;;;;;8.20;1.00;;;;;;;7.33;77.34;99149.38;106057;1283;24284;-56
2023/03/26 00:36:36;;;;;;;4.80;0.80;;;;;;;7.32;77.47;99145.57;106068;1282;23033;-56
2023/03/26 00:39:07;;;;;;;7.80;0.90;;;;;;;7.30;77.54;99145.45;109887;1267;22190;-58
2023/03/26 00:41:41;;;;;;;3.80;0.70;;;;;;;7.28;77.54;99140.57;109886;1276;22337;-59
2023/03/26 00:44:12;;;;;;;5.00;1.10;;;;;;;7.26;77.60;99141.10;109796;1267;22365;-58
2023/03/26 00:46:43;;;;;;;5.30;0.90;;;;;;;7.25;77.54;99136.89;109893;1275;22171;-58
2023/03/26 00:49:14;;;;;;;6.80;1.10;;;;;;;7.22;77.61;99130.30;109866;1273;23050;-57
2023/03/26 00:51:45;;;;;;;3.00;0.80;;;;;;;7.21;77.79;99133.36;109865;1273;22394;-58
2023/03/26 00:54:16;;;;;;;4.70;0.80;;;;;;;7.20;77.81;99134.52;109904;1275;22167;-58
2023/03/26 00:56:47;;;;;;;6.10;0.90;;;;;;;7.20;77.95;99133.74;109869;1270;22302;-57
2023/03/26 00:59:21;;;;;;;3.90;0.90;;;;;;;7.20;77.92;99136.08;109885;1274;23237;-61
2023/03/26 01:01:53;;;;;;;6.40;1.40;;;;;;;7.20;77.96;99130.73;109830;1279;22912;-60
2023/03/26 01:04:29;;;;;;;5.20;0.80;;;;;;;7.22;78.08;99138.36;109886;1267;22643;-57
2023/03/26 01:07:04;;;;;;;7.50;1.10;;;;;;;7.25;78.14;99140.43;109883;1270;22804;-58
2023/03/26 01:09:41;;;;;;;6.30;0.90;;;;;;;7.27;78.31;99139.40;109823;1276;22247;-59
2023/03/26 01:12:15;;;;;;;3.40;0.80;;;;;;;7.26;78.30;99135.70;109815;1270;22234;-58
2023/03/26 01:14:49;;;;;;;8.40;1.00;;;;;;;7.26;78.29;99136.09;109875;1270;22446;-58
2023/03/26 01:17:20;;;;;;;6.90;1.10;;;;;;;7.23;78.45;99134.53;109876;1267;23293;-64
2023/03/26 01:19:57;;;;;;;7.60;1.00;;;;;;;7.21;78.53;99132.55;109872;1282;22335;-58
2023/03/26 01:22:29;;;;;;;5.40;1.10;;;;;;;7.21;78.72;99132.90;109876;1270;22571;-58
2023/03/26 01:25:00;;;;;;;7.10;0.90;;;;;;;7.20;78.75;99129.87;109911;1267;22934;-60
2023/03/26 01:27:37;;;;;;;2.60;1.00;;;;;;;7.19;78.75;99129.50;109879;1277;22178;-58
2023/03/26 01:30:17;;;;;;;4.40;0.90;;;;;;;7.18;78.80;99130.07;109864;1276;22232;-57
2023/03/26 01:32:59;;;;;;;6.30;1.00;;;;;;;7.16;78.95;99133.23;109881;1267;22157;-59
2023/03/26 01:35:41;;;;;;;3.00;0.90;;;;;;;7.16;78.88;99135.48;109889;1267;22278;-60
2023/03/26 01:38:23;;;;;;;5.40;1.00;;;;;;;7.14;78.95;99138.19;109873;1275;22331;-58
2023/03/26 01:41:00;;;;;;;6.20;1.00;;;;;;;7.13;78.95;99136.12;109886;1282;22166;-58
2023/03/26 01:43:36;;;;;;;6.20;1.00;;;;;;;7.13;78.92;99139.85;109883;1276;22182;-58
2023/03/26 01:46:11;;;;;;;5.00;1.00;;;;;;;7.12;78.88;99133.77;109875;1273;22213;-57
2023/03/26 01:48:44;;;;;;;5.30;1.10;;;;;;;7.11;78.86;99138.40;109899;1267;22162;-58
2023/03/26 01:51:26;;;;;;;5.10;1.00;;;;;;;7.08;78.88;99136.18;109906;1279;22182;-56
2023/03/26 01:53:57;;;;;;;3.80;1.00;;;;;;;7.04;78.99;99138.61;109859;1276;22162;-59
2023/03/26 01:56:39;;;;;;;4.30;1.20;;;;;;;7.02;79.09;99139.77;109879;1267;23257;-58
2023/03/26 01:59:26;;;;;;;3.40;1.00;;;;;;;6.99;79.16;99135.30;109902;1267;22326;-60
2023/03/26 02:02:03;;;;;;;6.00;1.10;;;;;;;7.00;79.16;99137.67;108062;1282;22650;-55
2023/03/26 02:04:42;;;;;;;5.30;0.90;;;;;;;6.99;79.13;99138.17;106454;1283;25453;-58
2023/03/26 02:07:21;;;;;;;4.30;1.10;;;;;;;7.00;79.33;99135.05;109861;1275;22169;-58
2023/03/26 02:09:57;;;;;;;3.80;1.00;;;;;;;7.00;79.45;99129.70;109900;1276;22215;-58
2023/03/26 02:12:29;;;;;;;4.80;1.00;;;;;;;7.02;79.47;99126.46;109843;1273;22168;-58
2023/03/26 02:15:01;;;;;;;4.20;1.00;;;;;;;7.04;79.59;99126.58;109891;1267;22565;-58
2023/03/26 02:17:32;;;;;;;8.00;1.30;;;;;;;7.04;79.64;99125.68;109902;1275;22193;-58
2023/03/26 02:20:09;;;;;;;5.40;1.10;;;;;;;7.05;79.59;99124.50;109897;1277;22202;-58
2023/03/26 02:22:44;;;;;;;4.70;1.00;;;;;;;7.08;79.70;99124.02;109887;1277;22955;-58
2023/03/26 02:25:17;;;;;;;5.30;1.20;;;;;;;7.09;79.79;99120.40;109847;1279;22839;-58
2023/03/26 02:27:51;;;;;;;7.40;1.30;;;;;;;7.10;79.82;99120.43;109899;1272;22310;-60
2023/03/26 02:30:25;;;;;;;6.20;1.00;;;;;;;7.12;79.79;99119.34;109927;1273;22242;-57
2023/03/26 02:32:57;;;;;;;6.80;1.10;;;;;;;7.14;79.86;99124.47;109865;1273;22275;-58
2023/03/26 02:35:29;;;;;;;5.50;1.10;;;;;;;7.16;79.82;99123.14;109871;1274;22134;-58
2023/03/26 02:38:00;;;;;;;6.80;1.40;;;;;;;7.19;79.98;99123.94;109903;1282;23572;-60
2023/03/26 02:40:30;;;;;;;7.20;1.10;;;;;;;7.22;79.88;99118.73;109878;1277;22258;-57
2023/03/26 02:43:01;;;;;;;5.20;1.30;;;;;;;7.26;79.76;99116.52;109867;1267;22246;-58
2023/03/26 02:45:32;;;;;;;5.10;1.20;;;;;;;7.27;79.83;99119.05;109864;1276;22148;-58
2023/03/26 02:48:03;;;;;;;7.00;1.20;;;;;;;7.26;79.75;99120.00;109888;1275;22202;-60
2023/03/26 02:50:35;;;;;;;5.20;1.30;;;;;;;7.27;79.90;99114.31;109888;1273;22309;-59
2023/03/26 02:53:06;;;;;;;4.90;1.10;;;;;;;7.29;79.96;99115.14;109900;1277;22268;-60
2023/03/26 02:55:37;;;;;;;4.00;0.90;;;;;;;7.31;79.89;99116.70;109892;1282;22133;-56
2023/03/26 02:58:08;;;;;;;6.30;1.20;;;;;;;7.34;80.08;99116.89;109886;1267;22302;-59
2023/03/26 03:00:39;;;;;;;7.40;1.50;;;;;;;7.39;80.01;99123.05;109873;1276;22220;-59
2023/03/26 03:03:10;;;;;;;5.60;1.10;;;;;;;7.42;80.29;99116.08;109880;1273;22401;-59
2023/03/26 03:05:42;;;;;;;6.20;1.10;;;;;;;7.45;80.47;99114.65;109889;1275;22467;-57
2023/03/26 03:08:13;;;;;;;6.60;1.10;;;;;;;7.47;80.45;99113.88;109889;1270;22426;-59
2023/03/26 03:10:44;;;;;;;4.20;1.10;;;;;;;7.49;80.32;99115.87;109905;1275;22168;-59
2023/03/26 03:13:15;;;;;;;8.30;1.30;;;;;;;7.51;80.33;99110.95;109901;1270;22219;-60
2023/03/26 03:15:45;;;;;;;4.90;1.10;;;;;;;7.52;80.44;99112.37;109875;1276;22223;-58
2023/03/26 03:18:16;;;;;;;7.60;1.20;;;;;;;7.55;80.38;99116.05;109899;1276;22205;-59
2023/03/26 03:20:48;;;;;;;5.50;1.50;;;;;;;7.56;80.46;99117.08;109864;1276;22484;-57
2023/03/26 03:23:19;;;;;;;7.80;1.50;;;;;;;7.58;80.37;99115.83;109893;1274;22349;-59
2023/03/26 03:25:51;;;;;;;6.40;1.20;;;;;;;7.59;80.43;99116.16;109891;1277;22204;-59
2023/03/26 03:28:22;;;;;;;4.60;1.30;;;;;;;7.61;80.39;99117.09;109918;1267;22171;-57
2023/03/26 03:30:53;;;;;;;13.90;2.50;;;;;;;7.62;80.25;99115.93;109928;1270;22259;-60
2023/03/26 03:33:24;;;;;;;7.20;1.10;;;;;;;7.63;80.31;99117.71;109890;1272;22175;-58
2023/03/26 03:35:54;;;;;;;4.90;1.20;;;;;;;7.63;80.35;99117.83;109873;1274;22164;-60
2023/03/26 03:38:25;;;;;;;8.90;1.50;;;;;;;7.64;80.30;99119.23;109865;1274;22887;-58
2023/03/26 03:40:56;;;;;;;8.30;2.30;;;;;;;7.65;80.42;99121.92;109896;1276;23033;-58
2023/03/26 03:43:27;;;;;;;10.90;1.40;;;;;;;7.66;80.38;99123.45;109902;1275;22921;-58
2023/03/26 03:45:58;;;;;;;4.90;1.20;;;;;;;7.66;80.33;99124.02;109903;1267;22747;-58
2023/03/26 03:48:29;;;;;;;5.80;1.60;;;;;;;7.65;80.26;99125.58;109904;1275;22207;-59
2023/03/26 03:51:00;;;;;;;4.90;1.00;;;;;;;7.66;80.30;99128.45;109896;1275;22315;-58
2023/03/26 03:53:35;;;;;;;7.80;1.30;;;;;;;7.67;80.17;99129.03;109889;1267;22204;-59
2023/03/26 03:56:08;;;;;;;7.90;1.10;;;;;;;7.68;80.22;99129.45;109809;1276;22175;-60
2023/03/26 03:58:41;;;;;;;5.30;1.20;;;;;;;7.70;80.16;99139.11;109883;1282;22193;-59
2023/03/26 04:01:12;;;;;;;7.80;1.20;;;;;;;7.70;80.25;99140.67;109884;1277;22154;-57
2023/03/26 04:03:44;;;;;;;5.80;1.10;;;;;;;7.71;80.05;99146.80;109886;1276;22183;-59
2023/03/26 04:06:17;;;;;;;5.70;1.10;;;;;;;7.71;79.99;99144.33;109874;1276;23000;-59
2023/03/26 04:08:48;;;;;;;9.70;1.00;;;;;;;7.72;80.12;99144.59;109895;1276;22941;-58
2023/03/26 04:11:19;;;;;;;5.70;0.90;;;;;;;7.72;79.96;99142.68;109864;1274;22892;-59
2023/03/26 04:13:50;;;;;;;4.20;1.10;;;;;;;7.73;80.00;99144.27;109882;1282;22362;-58
2023/03/26 04:16:21;;;;;;;3.60;0.80;;;;;;;7.73;79.83;99138.70;109865;1275;22300;-57
2023/03/26 04:18:52;;;;;;;4.70;0.90;;;;;;;7.73;79.76;99131.73;109885;1276;22235;-58
2023/03/26 04:21:25;;;;;;;4.80;1.00;;;;;;;7.73;79.61;99134.71;109902;1277;22182;-58
2023/03/26 04:23:56;;;;;;;3.50;0.60;;;;;;;7.72;79.29;99140.61;109894;1276;23222;-58
2023/03/26 04:26:29;;;;;;;5.50;0.70;;;;;;;7.74;78.86;99144.02;109865;1274;23176;-58
2023/03/26 04:29:04;;;;;;;4.60;0.60;;;;;;;7.76;78.82;99143.14;109894;1282;22227;-58
2023/03/26 04:31:37;;;;;;;3.60;0.40;;;;;;;7.78;78.53;99146.04;109894;1275;22182;-59
2023/03/26 04:34:14;;;;;;;4.00;0.40;;;;;;;7.80;78.15;99145.88;109868;1267;22152;-59
2023/03/26 04:36:45;;;;;;;4.10;0.40;;;;;;;7.84;78.03;99148.03;109867;1275;22398;-59
2023/03/26 04:39:16;;;;;;;1.40;0.30;;;;;;;7.86;77.74;99144.08;109878;1276;22929;-59
2023/03/26 04:41:47;;;;;;;2.00;0.50;;;;;;;7.90;77.61;99142.73;109863;1267;23055;-58
2023/03/26 04:44:21;;;;;;;4.20;0.40;;;;;;;7.93;77.39;99143.70;109886;1277;23213;-60
2023/03/26 04:46:54;;;;;;;3.20;0.80;;;;;;;7.95;77.24;99139.89;109816;1276;22187;-59
2023/03/26 04:49:25;;;;;;;2.80;0.40;;;;;;;7.99;77.11;99139.46;109892;1267;22198;-59
2023/03/26 04:51:55;;;;;;;2.90;0.40;;;;;;;8.00;76.98;99140.84;109881;1267;22184;-59
2023/03/26 04:54:26;;;;;;;2.00;0.30;;;;;;;8.02;76.79;99142.19;109868;1277;22915;-60
2023/03/26 04:57:01;;;;;;;0.90;0.20;;;;;;;8.04;76.73;99141.45;109857;1277;22202;-59
2023/03/26 04:59:34;;;;;;;3.20;0.40;;;;;;;8.05;76.22;99143.58;109880;1274;23399;-59
2023/03/26 05:02:07;;;;;;;3.60;0.30;;;;;;;8.06;76.66;99147.02;109887;1283;22152;-60
2023/03/26 05:04:39;;;;;;;4.00;0.40;;;;;;;8.06;76.49;99150.37;109895;1279;22202;-59
2023/03/26 05:07:14;;;;;;;3.40;0.50;;;;;;;8.05;76.59;99152.02;109873;1270;22181;-60
2023/03/26 05:09:45;;;;;;;1.80;0.40;;;;;;;8.02;76.43;99151.44;109831;1272;22804;-58
2023/03/26 05:12:16;;;;;;;3.60;0.50;;;;;;;8.00;76.30;99148.67;109900;1276;22148;-59
2023/03/26 05:14:47;;;;;;;2.30;0.40;;;;;;;7.97;76.60;99148.28;109877;1273;22443;-60
2023/03/26 05:17:20;;;;;;;4.20;0.30;;;;;;;7.94;76.74;99149.98;109866;1276;22937;-60
2023/03/26 05:19:51;;;;;;;3.30;0.40;;;;;;;7.92;76.83;99151.05;109898;1283;22260;-59
2023/03/26 05:22:22;;;;;;;1.40;0.30;;;;;;;7.89;76.94;99149.96;108204;1276;22541;-56
2023/03/26 05:24:53;;;;;;;2.50;0.40;;;;;;;7.86;77.05;99147.10;105880;1277;23892;-58
2023/03/26 05:27:24;;;;;;;3.30;0.50;;;;;;;7.84;77.10;99147.28;105855;1277;25350;-56
2023/03/26 05:30:02;;;;;;;5.60;0.40;;;;;;;7.84;77.18;99154.64;109875;1277;22204;-58
2023/03/26 05:32:33;;;;;;;3.80;0.30;;;;;;;7.83;77.25;99153.73;109803;1267;22231;-59
2023/03/26 05:35:04;;;;;;;0.80;0.40;;;;;;;7.82;77.04;99148.77;109864;1277;22350;-59
2023/03/26 05:37:37;;;;;;;5.00;0.90;;;;;;;7.82;77.09;99153.91;109871;1282;22242;-60
2023/03/26 05:40:12;;;;;;;4.10;0.30;;;;;;;7.81;77.21;99151.29;109848;1276;22226;-60
2023/03/26 05:42:44;;;;;;;0.80;0.20;;;;;;;7.82;77.03;99150.48;106049;1270;22596;-59
2023/03/26 05:45:15;;;;;;;1.20;0.20;;;;;;;7.82;77.18;99151.59;105844;1267;25144;-59
2023/03/26 05:47:48;;;;;;;1.30;0.10;;;;;;;7.82;77.24;99151.39;105886;1277;23010;-58
2023/03/26 05:50:19;;;;;;;2.40;0.20;;;;;;;7.83;77.25;99151.29;109852;1267;22309;-59
2023/03/26 05:52:50;;;;;;;2.50;0.40;;;;;;;7.83;77.27;99147.45;109909;1282;22176;-58
2023/03/26 05:55:20;;;;;;;1.40;0.20;;;;;;;7.83;77.11;99148.16;109859;1274;22249;-59
2023/03/26 05:57:51;;;;;;;1.20;0.10;;;;;;;7.84;77.27;99152.67;109890;1278;22285;-59
2023/03/26 06:00:23;;;;;;;3.30;0.20;;;;;;;7.87;77.39;99152.30;109900;1270;22192;-58
2023/03/26 06:02:54;;;;;;;1.30;0.30;;;;;;;7.89;77.48;99155.61;109903;1267;22167;-58
2023/03/26 06:05:25;;;;;;;1.30;0.20;;;;;;;7.91;77.49;99159.99;109856;1274;22350;-59
2023/03/26 06:07:56;;;;;;;1.20;0.30;;;;;;;7.93;77.47;99160.12;109895;1282;22957;-62
2023/03/26 06:10:27;;;;;;;4.60;0.40;;;;;;;7.95;77.59;99161.01;109863;1276;22242;-58
2023/03/26 06:12:58;;;;;;;3.20;0.30;;;;;;;7.98;77.60;99161.74;109855;1276;22223;-60
2023/03/26 06:15:28;;;;;;;2.10;0.30;;;;;;;8.01;77.56;99164.57;109868;1267;22984;-60
2023/03/26 06:17:59;;;;;;;5.10;0.40;;;;;;;8.03;77.75;99159.68;109889;1267;22180;-59
2023/03/26 06:20:30;;;;;;;1.70;0.30;;;;;;;8.07;77.74;99164.46;109861;1274;22320;-59
2023/03/26 06:23:01;;;;;;;2.50;0.40;;;;;;;8.10;77.99;99169.88;109885;1276;22159;-60
2023/03/26 06:25:32;;;;;;;1.90;0.30;;;;;;;8.15;77.87;99170.39;109893;1270;22175;-58
2023/03/26 06:28:03;;;;;;;7.30;0.50;;;;;;;8.19;77.95;99170.46;109877;1270;22908;-58
2023/03/26 06:30:34;;;;;;;1.80;0.30;;;;;;;8.24;77.60;99174.33;109879;1273;22914;-58
2023/03/26 06:33:05;;;;;;;3.40;0.40;;;;;;;8.28;77.68;99174.25;109893;1267;22155;-60
2023/03/26 06:35:36;;;;;;;3.30;0.40;;;;;;;8.31;77.41;99177.62;109891;1267;22191;-60
2023/03/26 06:38:07;;;;;;;3.40;0.40;;;;;;;8.35;77.29;99180.29;109855;1274;22123;-60
2023/03/26 06:40:38;;;;;;;1.90;0.40;;;;;;;8.37;77.11;99179.45;109879;1277;22177;-61
2023/03/26 06:43:09;;;;;;;2.40;0.40;;;;;;;8.39;77.26;99178.67;109870;1274;22156;-64
2023/03/26 06:45:40;;;;;;;4.50;0.40;;;;;;;8.43;77.33;99178.81;109881;1272;22142;-60
2023/03/26 06:48:11;;;;;;;3.80;0.70;;;;;;;8.46;77.16;99177.61;106512;1267;25422;-59
2023/03/26 06:50:42;;;;;;;5.40;0.60;;;;;;;8.48;77.16;99179.12;105974;1270;23040;-59
2023/03/26 06:53:13;;;;;;;2.00;0.30;;;;;;;8.51;77.17;99178.80;105989;1268;25271;-58
2023/03/26 06:55:44;;;;;;;3.80;0.40;;;;;;;8.54;76.74;99176.54;109914;1277;22225;-59
2023/03/26 06:58:15;;;;;;;2.30;0.40;;;;;;;8.57;77.25;99176.73;109908;1276;22232;-58
2023/03/26 07:00:47;;;;;;;1.70;0.40;;;;;;;8.62;77.27;99175.46;109910;1277;22356;-60
2023/03/26 07:03:17;;;;;;;2.20;0.30;;;;;;;8.67;76.84;99172.39;107793;1267;24740;-59
2023/03/26 07:05:50;;;;;;;2.80;0.40;;;;;;;8.71;76.56;99172.15;106011;1277;22621;-58
2023/03/26 07:08:21;;;;;;;3.30;0.50;;;;;;;8.75;76.36;99172.09;105987;1282;22605;-58
2023/03/26 07:10:52;;;;;;;2.50;0.40;;;;;;;8.80;76.59;99172.54;106029;1282;25516;-58
2023/03/26 07:13:23;;;;;;;6.30;0.50;;;;;;;8.84;76.17;99173.70;105919;1277;22903;-56
2023/03/26 07:15:54;;;;;;;3.40;0.40;;;;;;;8.87;76.27;99172.96;109867;1268;22481;-58
2023/03/26 07:18:25;;;;;;;1.90;0.40;;;;;;;8.91;76.20;99174.71;109871;1275;22663;-59
2023/03/26 07:20:57;;;;;;;5.50;1.20;;;;;;;8.94;75.84;99181.88;109861;1267;23055;-63
2023/03/26 07:23:29;;;;;;;3.50;0.70;;;;;;;8.99;76.04;99184.49;109904;1274;22851;-58
2023/03/26 07:26:10;;;;;;;2.20;0.40;;;;;;;9.03;75.90;99184.52;109877;1267;22224;-58
2023/03/26 07:28:47;;;;;;;2.90;0.60;;;;;;;9.08;75.41;99180.82;109856;1277;22096;-59
2023/03/26 07:31:27;;;;;;;5.10;0.70;;;;;;;9.09;75.19;99185.33;109825;1279;23283;-59
2023/03/26 07:34:05;;;;;;;7.30;0.80;;;;;;;9.09;74.69;99182.70;109902;1273;22108;-58
2023/03/26 07:36:45;;;;;;;7.00;0.60;;;;;;;9.10;74.63;99183.77;108171;1277;23083;-59
2023/03/26 07:39:30;;;;;;;4.10;0.40;;;;;;;9.11;74.59;99185.30;107606;1280;24224;-58
2023/03/26 07:42:05;;;;;;;4.30;0.70;;;;;;;9.14;74.17;99185.08;109901;1273;22958;-60
2023/03/26 07:44:49;;;;;;;10.10;1.60;;;;;;;9.19;73.95;99185.56;108070;1277;22649;-60
2023/03/26 07:47:27;;;;;;;2.90;0.60;;;;;;;9.24;74.01;99186.05;109802;1276;22308;-60
2023/03/26 07:49:59;;;;;;;3.60;0.80;;;;;;;9.29;74.02;99183.77;109878;1277;22391;-60
2023/03/26 07:52:31;;;;;;;5.30;1.10;;;;;;;9.33;73.82;99177.67;109788;1273;22422;-59
2023/03/26 07:55:03;;;;;;;6.30;1.40;;;;;;;9.36;74.04;99172.73;109867;1275;22336;-59
2023/03/26 07:57:46;;;;;;;8.00;2.10;;;;;;;9.40;74.33;99172.24;109875;1272;22430;-59
2023/03/26 08:00:21;;;;;;;8.90;2.00;;;;;;;9.46;74.13;99175.92;109804;1273;22155;-58
2023/03/26 08:03:30;;;;;;;10.00;2.10;;;;;;;9.50;74.26;99177.72;109826;1270;22330;-59
2023/03/26 08:06:13;;;;;;;5.60;1.00;;;;;;;9.56;74.34;99177.16;109791;1277;22146;-58
2023/03/26 08:08:53;;;;;;;4.10;1.10;;;;;;;9.61;74.09;99171.71;109875;1275;22291;-58
2023/03/26 08:11:37;;;;;;;6.20;0.80;;;;;;;9.65;73.87;99172.85;109881;1268;22192;-58
2023/03/26 08:14:39;;;;;;;2.70;0.60;;;;;;;9.68;74.34;99171.30;109875;1276;23294;-58
2023/03/26 08:17:15;;;;;;;5.40;1.00;;;;;;;9.74;74.02;99166.01;109828;1277;22313;-57
2023/03/26 08:20:04;;;;;;;5.50;1.00;;;;;;;9.80;74.11;99159.85;109851;1276;22254;-57
2023/03/26 08:22:41;;;;;;;6.30;1.30;;;;;;;9.88;74.29;99160.54;109821;1273;22646;-57
2023/03/26 08:25:28;;;;;;;3.50;0.70;;;;;;;9.96;74.01;99158.20;109753;1270;22882;-58
2023/03/26 08:28:14;;;;;;;3.50;0.50;;;;;;;10.02;73.84;99154.27;109819;1276;22201;-57
2023/03/26 08:30:46;;;;;;;2.40;0.60;;;;;;;10.07;74.03;99151.25;109833;1276;22321;-58
2023/03/26 08:33:20;;;;;;;3.00;0.60;;;;;;;10.08;74.33;99149.73;109837;1276;22212;-58
2023/03/26 08:35:51;;;;;;;2.20;0.60;;;;;;;10.02;74.22;99154.52;109813;1276;22225;-59
2023/03/26 08:38:22;;;;;;;3.60;0.70;;;;;;;9.94;74.49;99151.50;109812;1270;22712;-58
2023/03/26 08:41:40;;;;;;;3.40;0.50;;;;;;;9.89;73.87;99153.50;109857;1277;22132;-58
2023/03/26 08:44:56;;;;;;;4.60;0.50;;;;;;;9.86;73.91;99146.04;106740;1276;24281;-57
2023/03/26 08:48:07;;;;;;;2.90;0.30;;;;;;;9.83;74.06;99146.23;107974;1268;90381;-61
2023/03/26 08:51:04;;;;;;;3.30;0.40;;;;;;;9.82;74.01;99146.08;109476;1283;22226;-61
2023/03/26 08:54:07;;;;;;;3.70;0.70;;;;;;;9.81;73.82;99144.40;109476;1282;22197;-61
2023/03/26 08:56:45;;;;;;;5.20;0.70;;;;;;;9.82;73.78;99143.44;109456;1273;23396;-63
2023/03/26 09:00:00;;;;;;;3.10;0.40;;;;;;;9.86;73.83;99137.23;109416;1283;22310;-64
2023/03/26 09:03:02;;;;;;;2.90;0.30;;;;;;;9.90;73.37;99138.71;109483;1280;22189;-67
2023/03/26 09:06:05;;;;;;;2.00;0.50;;;;;;;9.92;73.68;99139.58;109396;1282;22230;-67
2023/03/26 09:09:10;;;;;;;3.90;0.50;;;;;;;9.96;73.20;99137.83;109444;1281;23106;-68
2023/03/26 09:12:32;;;;;;;2.80;0.50;;;;;;;9.95;73.06;99133.52;109417;1278;22332;-67
2023/03/26 09:15:51;;;;;;;1.70;0.30;;;;;;;9.97;72.91;99130.17;109440;1273;22207;-67
2023/03/26 09:18:45;;;;;;;1.20;0.40;;;;;;;10.03;72.50;99126.03;109510;1273;22255;-64
2023/03/26 09:21:49;;;;;;;2.50;0.40;;;;;;;10.13;71.85;99127.36;109495;1276;23125;-65
2023/03/26 09:24:49;;;;;;;2.50;0.40;;;;;;;10.21;71.53;99121.39;109379;1280;22387;-66
2023/03/26 09:27:37;;;;;;;1.30;0.40;;;;;;;10.29;71.29;99118.42;109506;1279;23097;-67
2023/03/26 09:30:47;;;;;;;3.50;0.60;;;;;;;10.33;71.10;99118.84;106042;1277;22567;-66
2023/03/26 09:33:58;;;;;;;3.70;0.60;;;;;;;10.36;70.34;99110.98;109364;1281;22173;-65
2023/03/26 09:36:59;;;;;;;3.40;0.50;;;;;;;10.35;69.51;99114.17;109401;1273;22313;-65
2023/03/26 09:39:39;;;;;;;3.20;0.50;;;;;;;10.29;69.93;99134.75;108484;1287;22224;-66
2023/03/26 09:42:24;;;;;;;4.40;0.60;;;;;;;10.11;70.78;99156.76;108546;1284;22234;-58
2023/03/26 09:45:21;;;;;;;2.10;0.20;;;;;;;9.69;73.25;99156.59;108492;1284;23092;-57
2023/03/26 09:48:30;;;;;;;1.70;0.20;;;;;;;9.12;74.92;99155.02;108368;1291;22378;-55
2023/03/26 09:51:15;;;;;;;1.80;0.30;;;;;;;8.66;75.96;99149.50;107301;1289;22314;-56
2023/03/26 09:54:10;;;;;;;1.40;0.30;;;;;;;8.38;76.82;99140.44;107324;1296;22259;-53
2023/03/26 09:56:56;;;;;;;0.60;0.40;;;;;;;8.22;77.61;99140.19;107364;1302;22569;-54
2023/03/26 10:00:00;;;;;;;0.90;0.30;;;;;;;8.14;78.13;99147.52;107249;1302;22247;-55
2023/03/26 10:02:52;;;;;;;1.20;0.20;;;;;;;8.15;78.61;99143.64;106898;1306;23232;-56
2023/03/26 10:05:37;;;;;;;1.40;0.40;;;;;;;8.20;79.42;99144.42;106864;1302;23191;-57
2023/03/26 10:08:29;;;;;;;3.90;0.30;;;;;;;8.28;79.69;99144.23;106763;1306;22735;-56
2023/03/26 10:11:08;;;;;;;1.60;0.30;;;;;;;8.38;80.18;99135.88;107071;1307;22317;-54
2023/03/26 10:13:55;;;;;;;5.80;0.70;;;;;;;8.48;80.41;99133.70;107166;1296;22215;-56
2023/03/26 10:16:35;;;;;;;2.40;0.80;;;;;;;8.60;80.63;99137.15;107350;1300;22400;-56
2023/03/26 10:19:20;;;;;;;3.70;0.70;;;;;;;8.73;80.95;99133.42;108245;1289;22219;-57
2023/03/26 10:22:02;;;;;;;3.00;0.60;;;;;;;8.84;80.87;99129.27;108256;1294;22986;-58
2023/03/26 10:24:49;;;;;;;4.40;0.80;;;;;;;8.96;81.13;99127.23;108264;1285;22421;-57
2023/03/26 10:27:39;;;;;;;3.90;0.60;;;;;;;9.06;80.64;99131.66;108310;1284;23049;-57
2023/03/26 10:30:33;;;;;;;4.10;0.70;;;;;;;9.14;80.83;99134.29;109287;1285;23445;-56
2023/03/26 10:33:30;;;;;;;4.20;0.90;;;;;;;9.24;80.66;99129.10;109301;1285;22241;-58
2023/03/26 10:36:24;;;;;;;5.40;0.90;;;;;;;9.36;81.13;99127.90;109281;1285;23521;-54
2023/03/26 10:39:29;;;;;;;7.10;1.00;;;;;;;9.52;81.00;99127.54;109291;1279;22508;-55
2023/03/26 10:42:13;;;;;;;4.30;0.60;;;;;;;9.64;79.89;99114.02;109680;1273;22396;-57
2023/03/26 10:45:10;;;;;;;3.60;0.80;;;;;;;9.70;79.25;99112.27;109719;1272;22494;-59
2023/03/26 10:48:12;;;;;;;2.40;0.50;;;;;;;9.76;78.46;99111.75;109726;1270;22187;-61
2023/03/26 10:50:58;;;;;;;1.60;0.30;;;;;;;9.82;77.04;99112.48;109663;1282;22252;-61
2023/03/26 10:53:35;;;;;;;2.20;0.50;;;;;;;9.84;75.19;99110.46;109736;1277;22216;-61
2023/03/26 10:56:19;;;;;;;2.40;0.50;;;;;;;9.84;75.04;99104.38;109770;1284;22269;-61
2023/03/26 10:58:51;;;;;;;3.70;0.50;;;;;;;9.92;74.46;99102.38;109708;1276;22416;-62
2023/03/26 11:01:32;;;;;;;2.70;0.50;;;;;;;9.98;73.59;99098.48;109746;1272;22164;-62
2023/03/26 11:04:15;;;;;;;1.30;0.40;;;;;;;10.03;73.05;99096.33;108305;1279;25200;-61
2023/03/26 11:06:55;;;;;;;2.00;0.40;;;;;;;10.08;72.97;99091.38;109740;1279;22320;-63
2023/03/26 11:09:35;;;;;;;8.30;0.60;;;;;;;10.17;72.73;99090.45;106480;1284;22523;-62
2023/03/26 11:12:15;;;;;;;3.00;0.70;;;;;;;10.28;72.82;99091.65;109741;1272;22387;-61
2023/03/26 11:14:55;;;;;;;3.80;0.50;;;;;;;10.41;71.17;99090.55;109719;1280;22337;-62
2023/03/26 11:17:38;;;;;;;2.70;0.60;;;;;;;10.58;71.15;99088.17;109803;1275;22211;-62
2023/03/26 11:20:16;;;;;;;3.30;0.70;;;;;;;10.69;70.61;99085.55;109787;1274;22166;-61
2023/03/26 11:23:00;;;;;;;3.10;0.70;;;;;;;10.71;69.77;99086.27;109842;1277;23033;-61
2023/03/26 11:25:45;;;;;;;3.90;0.50;;;;;;;10.72;70.31;99082.95;109749;1280;22783;-60
2023/03/26 11:28:33;;;;;;;6.10;0.70;;;;;;;10.75;72.28;99079.95;109846;1261;22375;-62
2023/03/26 11:31:14;;;;;;;4.80;0.90;;;;;;;10.70;72.65;99075.60;109765;1277;22200;-62
2023/03/26 11:33:50;;;;;;;4.50;0.60;;;;;;;10.67;73.45;99083.16;106163;1275;24256;-61
2023/03/26 11:36:25;;;;;;;4.70;0.80;;;;;;;10.62;73.25;99074.33;109810;1270;23072;-62
2023/03/26 11:39:00;;;;;;;2.80;0.70;;;;;;;10.65;73.97;99075.54;109855;1279;22219;-61
2023/03/26 11:41:32;;;;;;;3.30;0.50;;;;;;;10.70;73.08;99079.40;109863;1268;23329;-62
2023/03/26 11:44:08;;;;;;;6.20;1.20;;;;;;;10.71;72.88;99066.41;109873;1280;22172;-62
2023/03/26 11:46:43;;;;;;;3.40;0.70;;;;;;;10.73;72.38;99066.36;109793;1283;22275;-62
2023/03/26 11:49:17;;;;;;;2.70;0.70;;;;;;;10.75;72.69;99059.25;109880;1266;23053;-62
2023/03/26 11:51:49;;;;;;;3.30;0.90;;;;;;;10.79;72.50;99065.39;109804;1273;23048;-62
2023/03/26 11:54:21;;;;;;;2.80;0.50;;;;;;;10.84;71.66;99060.66;109874;1277;22397;-62
2023/03/26 11:57:15;;;;;;;5.30;0.60;;;;;;;10.86;70.86;99061.92;109752;1276;22218;-67
2023/03/26 11:59:56;;;;;;;5.90;0.80;;;;;;;10.88;70.53;99057.30;109846;1279;22342;-61
2023/03/26 12:02:27;;;;;;;;;;;;;;;10.90;70.55;99050.24;109870;1274;22443;-62
2023/03/26 12:05:16;;;;;;;2.30;0.40;;;;;;;10.93;68.42;99051.00;109861;1276;22231;-62
2023/03/26 12:07:52;;;;;;;4.30;0.30;;;;;;;10.96;66.40;99048.31;109537;1283;22539;-62
2023/03/26 12:10:33;;;;;;;4.30;0.60;;;;;;;10.98;65.48;99043.33;109814;1279;22904;-61
2023/03/26 12:13:23;;;;;;;3.20;0.60;;;;;;;11.00;67.38;99052.52;109827;1273;22909;-62
2023/03/26 12:16:01;;;;;;;6.10;1.10;;;;;;;11.00;68.58;99047.13;109834;1279;22342;-62
2023/03/26 12:18:32;;;;;;;8.40;0.80;;;;;;;10.96;69.70;99042.17;109874;1276;22196;-62
2023/03/26 12:21:09;;;;;;;2.90;0.70;;;;;;;10.95;70.12;99042.88;109840;1270;22319;-59